Time;durP1;ratioP1;P1;durP2;ratioP2;P2;SDS_P1;SDS_P2;PMS_P1;PMS_P2;Temp;Humidity;BMP_temperature;BMP_pressure;BME280_temperature;BME280_humidity;BME280_pressure;Samples;Min_cycle;Max_cycle;Signal;HPM_P1;HPM_P2
2023/01/15 00:01:25;;;;;;;2.97;1.40;;;;;;;8.85;88.29;96924.66;5010753;28;20034;-83
2023/01/15 00:03:53;;;;;;;2.35;1.35;;;;;;;8.92;88.47;96923.81;5004893;28;20038;-83
2023/01/15 00:06:20;;;;;;;1.70;1.38;;;;;;;8.90;87.94;96910.16;5003955;28;20038;-83
2023/01/15 00:08:46;;;;;;;2.95;1.38;;;;;;;8.85;87.57;96911.59;5007262;28;20030;-83
2023/01/15 00:11:12;;;;;;;2.05;1.27;;;;;;;8.82;87.52;96903.41;5005382;28;20041;-83
2023/01/15 00:13:37;;;;;;;2.00;1.20;;;;;;;8.85;87.45;96893.28;5017416;28;20034;-83
2023/01/15 00:16:10;;;;;;;2.03;1.33;;;;;;;8.85;87.24;96903.75;5004400;28;20066;-83
2023/01/15 00:18:35;;;;;;;1.50;1.10;;;;;;;8.90;87.28;96891.84;5002508;28;20038;-83
2023/01/15 00:21:04;;;;;;;1.55;1.27;;;;;;;8.89;87.16;96891.06;5001215;28;20037;-83
2023/01/15 00:29:06;;;;;;;2.00;1.40;;;;;;;9.01;85.33;96891.94;5022400;28;20037;-83
2023/01/15 00:31:34;;;;;;;3.22;1.30;;;;;;;9.03;85.37;96886.47;5004023;28;20393;-83
2023/01/15 00:34:01;;;;;;;1.42;1.20;;;;;;;9.04;85.41;96888.06;5008642;28;20160;-83
2023/01/15 00:36:26;;;;;;;1.88;1.10;;;;;;;9.05;85.30;96887.03;5003204;28;20038;-84
2023/01/15 00:38:52;;;;;;;3.45;1.20;;;;;;;9.03;85.10;96879.41;5008536;28;20053;-83
2023/01/15 00:41:17;;;;;;;2.88;1.33;;;;;;;9.07;84.37;96874.56;5007792;28;20029;-83
2023/01/15 00:43:43;;;;;;;1.38;1.25;;;;;;;9.07;84.27;96866.72;5007880;28;20037;-83
2023/01/15 00:46:09;;;;;;;2.33;1.55;;;;;;;9.07;84.38;96864.09;5007774;28;20037;-83
2023/01/15 00:48:35;;;;;;;1.38;1.15;;;;;;;9.05;84.03;96863.50;5005230;28;20038;-83
2023/01/15 00:51:03;;;;;;;2.58;1.55;;;;;;;9.06;84.01;96867.75;5005085;28;20049;-83
2023/01/15 00:53:29;;;;;;;2.97;1.30;;;;;;;9.02;83.90;96850.88;5005309;28;20050;-83
2023/01/15 00:55:55;;;;;;;3.15;1.45;;;;;;;9.02;83.99;96846.44;5009559;28;20069;-83
2023/01/15 00:58:20;;;;;;;1.80;1.35;;;;;;;9.03;83.62;96858.50;5000098;28;20152;-83
2023/01/15 01:00:54;;;;;;;2.17;1.30;;;;;;;9.10;83.71;96858.41;5002078;28;20436;-83
2023/01/15 01:03:19;;;;;;;2.83;1.23;;;;;;;9.13;83.38;96865.03;5001518;28;20037;-83
2023/01/15 01:05:45;;;;;;;2.53;1.55;;;;;;;9.13;83.30;96868.44;5005295;28;20034;-83
2023/01/15 01:08:10;;;;;;;1.80;1.20;;;;;;;9.13;83.26;96863.22;5000956;28;20107;-83
2023/01/15 01:10:36;;;;;;;3.70;1.30;;;;;;;9.14;82.85;96856.97;5005780;28;20030;-83
2023/01/15 01:13:01;;;;;;;1.75;1.23;;;;;;;9.18;82.58;96850.28;5007741;28;20092;-83
2023/01/15 01:15:27;;;;;;;3.05;1.55;;;;;;;9.21;82.99;96860.28;5004782;28;20113;-83
2023/01/15 01:17:52;;;;;;;2.08;1.60;;;;;;;9.23;82.78;96850.38;5003051;28;20034;-83
2023/01/15 01:20:18;;;;;;;3.50;1.63;;;;;;;9.26;82.62;96857.81;5005637;28;20573;-83
2023/01/15 01:22:43;;;;;;;2.90;1.25;;;;;;;9.24;82.67;96851.22;5001846;28;20045;-83
2023/01/15 01:25:09;;;;;;;3.13;1.13;;;;;;;9.25;82.45;96848.38;5004233;28;20034;-83
2023/01/15 01:27:35;;;;;;;2.13;1.50;;;;;;;9.26;82.81;96839.50;5005550;28;20044;-83
2023/01/15 01:30:02;;;;;;;2.40;1.20;;;;;;;9.28;82.60;96831.41;5006694;28;20049;-83
2023/01/15 01:32:28;;;;;;;2.30;1.25;;;;;;;9.31;82.69;96828.38;4999026;28;20042;-83
2023/01/15 01:34:53;;;;;;;1.88;1.30;;;;;;;9.24;82.70;96823.25;5008057;28;20118;-83
2023/01/15 01:37:18;;;;;;;1.40;1.17;;;;;;;9.32;82.38;96824.72;5003413;28;20156;-83
2023/01/15 01:39:44;;;;;;;1.73;1.23;;;;;;;9.32;82.75;96820.28;5002870;28;20041;-83
2023/01/15 01:42:15;;;;;;;1.10;1.00;;;;;;;9.35;82.69;96817.22;5004825;28;20040;-83
2023/01/15 01:44:43;;;;;;;1.95;1.30;;;;;;;9.37;82.90;96817.81;5002058;28;20976;-83
2023/01/15 01:47:21;;;;;;;2.20;1.25;;;;;;;9.43;82.67;96817.94;5003752;28;20038;-83
2023/01/15 01:49:53;;;;;;;1.67;1.23;;;;;;;9.45;82.95;96800.19;5004953;28;20121;-83
2023/01/15 01:52:29;;;;;;;3.08;1.48;;;;;;;9.42;82.71;96788.38;5002066;28;20172;-83
2023/01/15 01:54:55;;;;;;;2.70;1.40;;;;;;;9.47;82.55;96788.47;5001749;28;20095;-83
2023/01/15 01:57:23;;;;;;;2.58;1.30;;;;;;;9.49;82.81;96783.03;5006953;28;20137;-83
2023/01/15 01:59:49;;;;;;;1.67;0.98;;;;;;;9.52;82.32;96790.41;5004448;28;20037;-83
2023/01/15 02:02:19;;;;;;;2.58;1.38;;;;;;;9.54;82.45;96793.63;5004085;28;20041;-83
2023/01/15 02:04:45;;;;;;;1.48;1.13;;;;;;;9.57;82.05;96787.94;5004648;28;20030;-83
2023/01/15 02:07:11;;;;;;;2.25;1.30;;;;;;;9.59;82.02;96783.25;5005563;28;20037;-83
2023/01/15 02:09:37;;;;;;;2.47;1.40;;;;;;;9.61;81.86;96776.78;5001536;28;20092;-83
2023/01/15 02:12:27;;;;;;;2.60;1.13;;;;;;;9.63;81.96;96781.81;5006057;28;20043;-83
2023/01/15 02:15:25;;;;;;;1.65;1.10;;;;;;;9.61;82.21;96765.53;5002715;28;20057;-83
2023/01/15 02:18:17;;;;;;;1.60;1.00;;;;;;;9.63;82.15;96759.03;5002459;28;20484;-83
2023/01/15 02:20:51;;;;;;;0.93;0.90;;;;;;;9.65;81.77;96761.41;5001446;28;20091;-82
2023/01/15 02:23:39;;;;;;;1.85;0.90;;;;;;;9.68;81.74;96752.34;5001237;28;20108;-83
2023/01/15 02:26:26;;;;;;;0.85;0.82;;;;;;;9.70;81.78;96753.69;5007104;28;20037;-83
2023/01/15 02:28:58;;;;;;;0.88;0.68;;;;;;;9.66;82.09;96747.34;5006982;28;20042;-83
2023/01/15 02:31:33;;;;;;;1.50;1.10;;;;;;;9.73;82.13;96748.00;5007635;28;20034;-83
2023/01/15 02:34:10;;;;;;;1.83;1.00;;;;;;;9.72;82.09;96743.81;5005052;28;20374;-83
2023/01/15 02:36:43;;;;;;;1.30;0.80;;;;;;;9.75;82.04;96742.53;5007228;28;20037;-83
2023/01/15 02:39:14;;;;;;;1.27;0.80;;;;;;;9.71;81.77;96729.09;5005031;28;20096;-83
2023/01/15 02:41:50;;;;;;;0.68;0.60;;;;;;;9.80;81.43;96740.84;5004226;28;20551;-83
2023/01/15 02:44:22;;;;;;;0.75;0.60;;;;;;;9.78;81.68;96735.03;5007534;28;20481;-83
2023/01/15 02:46:49;;;;;;;1.02;0.80;;;;;;;9.78;81.72;96737.66;5005416;28;20030;-83
2023/01/15 02:49:20;;;;;;;0.63;0.63;;;;;;;9.76;81.30;96731.03;5004433;28;20042;-83
2023/01/15 02:51:57;;;;;;;0.77;0.77;;;;;;;9.81;81.51;96728.53;5006800;28;20039;-83
2023/01/15 02:54:30;;;;;;;1.27;0.70;;;;;;;9.77;80.84;96717.72;5005369;28;20501;-83
2023/01/15 02:57:02;;;;;;;0.68;0.60;;;;;;;9.83;81.09;96721.25;5006456;28;20042;-83
2023/01/15 02:59:37;;;;;;;0.90;0.70;;;;;;;9.87;80.37;96714.53;5003908;28;20193;-83
2023/01/15 03:02:11;;;;;;;0.63;0.60;;;;;;;9.89;80.47;96713.28;5007391;28;20053;-83
2023/01/15 03:04:48;;;;;;;0.63;0.60;;;;;;;9.89;80.41;96705.41;5002102;28;20037;-83
2023/01/15 03:07:23;;;;;;;0.60;0.60;;;;;;;9.89;79.25;96700.19;5008453;28;20045;-83
2023/01/15 03:09:52;;;;;;;1.45;0.70;;;;;;;9.88;79.44;96708.28;5008908;28;20035;-83
2023/01/15 03:12:33;;;;;;;0.60;0.60;;;;;;;9.92;79.18;96698.94;5007749;28;20061;-83
2023/01/15 03:14:58;;;;;;;;;;;;;;;9.95;78.80;96692.44;5006466;28;20383;-83
2023/01/15 03:17:48;;;;;;;0.73;0.60;;;;;;;9.96;78.57;96701.91;5008145;28;19920;-83
2023/01/15 03:20:25;;;;;;;1.48;0.80;;;;;;;9.93;78.79;96701.31;5008740;28;20034;-83
2023/01/15 03:22:59;;;;;;;0.98;0.60;;;;;;;9.95;78.51;96706.31;5004762;28;20061;-83
2023/01/15 03:25:41;;;;;;;0.60;0.52;;;;;;;9.98;78.59;96692.78;5009368;28;20043;-83
2023/01/15 03:28:13;;;;;;;0.60;0.60;;;;;;;10.01;78.12;96697.56;5007290;28;20034;-83
2023/01/15 03:30:38;;;;;;;;;;;;;;;10.09;77.99;96691.19;5009029;28;20061;-83
2023/01/15 03:33:03;;;;;;;1.50;0.80;;;;;;;10.08;78.23;96682.53;5003958;28;19914;-83
2023/01/15 03:35:52;;;;;;;0.60;0.60;;;;;;;10.04;77.93;96688.44;5005342;28;20064;-83
2023/01/15 03:38:24;;;;;;;0.70;0.60;;;;;;;10.03;78.03;96689.47;5004350;28;20096;-83
2023/01/15 03:41:01;;;;;;;1.02;0.68;;;;;;;10.06;77.54;96687.19;5009408;28;20405;-83
2023/01/15 03:44:06;;;;;;;0.73;0.73;;;;;;;10.05;76.76;96677.75;5005667;28;20053;-83
2023/01/15 03:47:12;;;;;;;0.52;0.52;;;;;;;10.10;76.99;96679.66;5004125;28;20502;-83
2023/01/15 03:50:06;;;;;;;1.23;0.60;;;;;;;10.03;76.87;96674.56;5008133;28;20045;-83
2023/01/15 03:52:47;;;;;;;0.60;0.60;;;;;;;10.08;77.23;96676.50;5000652;28;20128;-83
2023/01/15 03:55:25;;;;;;;0.77;0.60;;;;;;;10.08;77.28;96676.50;5006422;28;20045;-83
2023/01/15 03:58:04;;;;;;;1.40;0.60;;;;;;;10.07;77.71;96659.16;5003265;28;20338;-83
2023/01/15 04:00:37;;;;;;;0.85;0.47;;;;;;;10.00;77.69;96658.50;5005404;28;20034;-83
2023/01/15 04:03:07;;;;;;;0.50;0.50;;;;;;;10.07;78.08;96659.16;5005903;28;20369;-83
2023/01/15 04:05:36;;;;;;;0.70;0.70;;;;;;;10.17;77.97;96669.84;5004996;28;20042;-83
2023/01/15 04:08:03;;;;;;;0.77;0.65;;;;;;;10.18;78.19;96655.72;5005576;28;20445;-83
2023/01/15 04:10:29;;;;;;;0.60;0.60;;;;;;;10.15;79.14;96651.75;5010054;28;20042;-82
2023/01/15 04:12:54;;;;;;;0.52;0.50;;;;;;;10.13;80.80;96653.00;5004360;28;20041;-82
2023/01/15 04:15:19;;;;;;;0.60;0.60;;;;;;;10.11;81.50;96642.75;5004767;28;20037;-83
2023/01/15 04:17:45;;;;;;;0.98;0.60;;;;;;;10.14;81.98;96652.00;5006815;28;20398;-83
2023/01/15 04:20:11;;;;;;;0.50;0.50;;;;;;;10.13;82.22;96647.75;5003605;28;20044;-82
2023/01/15 04:22:37;;;;;;;1.75;0.60;;;;;;;10.10;82.95;96646.41;5001042;28;20177;-83
2023/01/15 04:25:06;;;;;;;0.60;0.60;;;;;;;10.09;82.73;96644.03;5005436;28;20156;-83
2023/01/15 04:27:32;;;;;;;4.00;0.70;;;;;;;10.10;82.84;96656.09;5006986;28;20045;-83
2023/01/15 04:29:57;;;;;;;0.40;0.40;;;;;;;10.04;83.16;96646.53;5010824;28;20026;-83
2023/01/15 04:32:23;;;;;;;0.80;0.50;;;;;;;9.99;83.82;96641.19;5002935;28;20030;-83
2023/01/15 04:34:49;;;;;;;0.45;0.45;;;;;;;9.99;84.42;96635.97;5006904;28;20167;-83
2023/01/15 04:37:16;;;;;;;1.98;0.73;;;;;;;9.93;84.82;96632.44;5004801;28;20038;-83
2023/01/15 04:39:42;;;;;;;0.70;0.60;;;;;;;9.93;85.56;96637.69;5008362;28;20040;-83
2023/01/15 04:44:58;;;;;;;0.57;0.57;;;;;;;9.85;86.81;96624.94;5005271;28;20033;-83
2023/01/15 04:47:24;;;;;;;7.68;7.30;;;;;;;9.84;87.15;96618.91;5007018;28;20034;-83
2023/01/15 04:49:50;;;;;;;5.15;4.97;;;;;;;9.86;87.20;96611.63;5003222;28;20037;-83
2023/01/15 04:52:15;;;;;;;4.05;3.85;;;;;;;9.84;87.73;96618.91;5004952;28;20026;-83
2023/01/15 04:54:41;;;;;;;72.00;68.57;;;;;;;9.77;88.27;96610.38;5004641;28;20137;-83
2023/01/15 04:57:06;;;;;;;0.30;0.30;;;;;;;9.74;88.13;96605.59;5007989;28;20534;-82
2023/01/15 04:59:32;;;;;;;3.53;3.42;;;;;;;9.74;88.12;96597.75;5003376;28;20061;-83
2023/01/15 05:01:57;;;;;;;0.70;0.70;;;;;;;9.75;88.11;96591.47;5003418;28;20027;-83
2023/01/15 05:04:23;;;;;;;0.63;0.63;;;;;;;9.79;88.34;96589.22;5000899;28;20036;-83
2023/01/15 05:06:49;;;;;;;2.15;0.70;;;;;;;9.73;87.78;96580.44;5006484;28;20417;-82
2023/01/15 05:09:15;;;;;;;0.70;0.70;;;;;;;9.78;87.64;96588.41;5006268;28;20469;-83
2023/01/15 05:11:40;;;;;;;0.70;0.70;;;;;;;9.82;87.50;96579.06;5007606;28;20070;-83
2023/01/15 05:14:06;;;;;;;0.55;0.50;;;;;;;9.81;87.08;96577.47;5005107;28;20127;-83
2023/01/15 05:16:33;;;;;;;0.82;0.60;;;;;;;9.87;86.87;96579.16;5006194;28;20049;-83
2023/01/15 05:19:02;;;;;;;0.63;0.60;;;;;;;9.84;86.44;96563.94;5002445;28;20043;-83
2023/01/15 05:21:35;;;;;;;0.50;0.50;;;;;;;9.89;86.34;96571.84;5006966;28;20038;-83
2023/01/15 05:24:03;;;;;;;0.60;0.60;;;;;;;9.91;86.43;96561.97;5005413;28;20073;-83
2023/01/15 05:26:31;;;;;;;0.73;0.63;;;;;;;9.89;86.45;96553.53;5006100;28;20585;-83
2023/01/15 05:28:59;;;;;;;0.95;0.70;;;;;;;9.94;86.34;96560.69;5003032;28;20034;-83
2023/01/15 05:31:25;;;;;;;3.22;0.75;;;;;;;9.93;86.13;96559.09;5005848;28;20054;-83
2023/01/15 05:33:53;;;;;;;0.65;0.60;;;;;;;9.96;86.59;96568.34;5006051;28;20037;-83
2023/01/15 05:36:26;;;;;;;0.80;0.77;;;;;;;9.93;86.66;96559.09;5006504;28;20030;-83
2023/01/15 05:38:53;;;;;;;0.60;0.60;;;;;;;9.93;86.39;96564.34;5007452;28;20375;-83
2023/01/15 05:44:09;;;;;;;0.75;0.70;;;;;;;10.00;86.56;96551.91;5006751;28;20477;-83
2023/01/15 05:46:38;;;;;;;0.70;0.70;;;;;;;9.98;87.11;96545.31;5002934;28;20429;-83
2023/01/15 05:49:10;;;;;;;1.13;0.77;;;;;;;9.96;87.02;96556.03;5002755;28;20038;-83
2023/01/15 05:51:37;;;;;;;0.70;0.50;;;;;;;9.98;86.96;96559.22;5003862;28;20022;-83
2023/01/15 05:54:05;;;;;;;0.80;0.80;;;;;;;9.96;87.15;96565.72;5005868;28;20046;-83
2023/01/15 05:56:34;;;;;;;1.65;0.80;;;;;;;9.98;87.55;96563.66;5001768;28;20045;-83
2023/01/15 05:59:00;;;;;;;0.55;0.50;;;;;;;9.97;88.67;96559.44;5002879;28;20074;-83
2023/01/15 06:01:25;;;;;;;1.30;0.60;;;;;;;9.97;89.77;96564.69;5000346;28;20117;-83
2023/01/15 06:03:52;;;;;;;0.60;0.60;;;;;;;9.88;90.70;96564.25;5003082;28;20049;-83
2023/01/15 06:06:18;;;;;;;1.30;0.60;;;;;;;9.83;91.45;96562.31;5003669;28;20040;-83
2023/01/15 06:08:44;;;;;;;0.70;0.70;;;;;;;9.81;92.50;96577.47;5003466;28;20042;-83
2023/01/15 06:11:10;;;;;;;1.35;0.60;;;;;;;9.81;92.75;96593.19;5002574;28;20041;-83
2023/01/15 06:13:41;;;;;;;0.80;0.80;;;;;;;9.63;93.90;96648.28;5006719;28;20030;-84
2023/01/15 06:16:09;;;;;;;1.08;0.70;;;;;;;8.78;100.00;96672.97;5008416;28;20033;-89
2023/01/15 06:18:36;;;;;;;0.85;0.50;;;;;;;8.29;100.00;96658.31;4994132;28;20127;-88
2023/01/15 06:21:04;;;;;;;1.50;0.57;;;;;;;8.31;100.00;96666.72;5011090;28;20040;-87
2023/01/15 06:23:30;;;;;;;0.90;0.30;;;;;;;8.31;100.00;96670.13;5015614;28;20071;-87
2023/01/15 06:26:04;;;;;;;0.70;0.50;;;;;;;8.21;100.00;96669.84;5007831;28;20030;-87
2023/01/15 06:28:30;;;;;;;3.38;0.50;;;;;;;8.22;100.00;96668.84;5010927;28;20064;-87
2023/01/15 06:30:56;;;;;;;1.25;0.32;;;;;;;7.98;100.00;96667.91;5011026;28;20041;-87
2023/01/15 06:33:22;;;;;;;0.20;0.20;;;;;;;7.96;100.00;96680.38;5010993;28;20037;-87
2023/01/15 06:35:47;;;;;;;1.75;0.50;;;;;;;-143.04;100.00;61139.28;5010801;28;20045;-87
2023/01/15 06:38:13;;;;;;;0.20;0.20;;;;;;;-143.04;100.00;61139.28;5010874;28;20052;-87
2023/01/15 06:40:39;;;;;;;0.30;0.30;;;;;;;-143.04;100.00;61139.28;5003482;28;20034;-87
2023/01/15 06:48:34;;;;;;;0.28;0.20;;;;;;;-143.04;100.00;61139.28;5010021;28;20037;-87
2023/01/15 06:50:59;;;;;;;0.85;0.20;;;;;;;-143.04;100.00;61139.28;5009878;28;20034;-87
2023/01/15 06:53:25;;;;;;;0.30;0.30;;;;;;;-143.04;100.00;61139.28;5004909;28;20632;-86
2023/01/15 06:55:50;;;;;;;0.30;0.30;;;;;;;-143.04;100.00;61139.28;5011345;28;20041;-86
2023/01/15 06:58:16;;;;;;;0.20;0.20;;;;;;;-143.04;100.00;61139.28;5010951;28;20112;-87
2023/01/15 07:00:43;;;;;;;0.52;0.30;;;;;;;-143.04;100.00;61139.28;5007686;28;20096;-86
2023/01/15 07:03:13;;;;;;;0.20;0.20;;;;;;;-143.04;100.00;61139.28;5007505;28;20043;-87
2023/01/15 07:05:41;;;;;;;0.85;0.20;;;;;;;-143.04;100.00;61139.28;5009106;28;20034;-86
2023/01/15 07:08:06;;;;;;;1.45;0.35;;;;;;;-143.04;100.00;61139.28;5008774;28;20030;-86
2023/01/15 07:10:35;;;;;;;1.25;0.30;;;;;;;-143.04;100.00;61139.28;4993775;28;20536;-85
2023/01/15 07:13:00;;;;;;;0.50;0.40;;;;;;;-143.04;100.00;61139.28;5001470;28;20038;-85
2023/01/15 07:15:26;;;;;;;0.40;0.40;;;;;;;-143.04;100.00;61139.28;5005283;28;20042;-85
2023/01/15 07:17:56;;;;;;;0.40;0.40;;;;;;;-143.04;100.00;61139.28;5013622;28;20042;-86
2023/01/15 07:20:22;;;;;;;1.08;0.30;;;;;;;-143.04;100.00;61139.28;5009615;28;20049;-86
2023/01/15 07:22:51;;;;;;;0.40;0.40;;;;;;;-143.04;100.00;61139.28;5007338;28;20034;-86
2023/01/15 07:25:17;;;;;;;0.90;0.30;;;;;;;-143.04;100.00;61139.28;5009042;28;20069;-86
2023/01/15 07:27:46;;;;;;;0.30;0.30;;;;;;;-143.04;100.00;61139.28;5008348;28;20057;-85
2023/01/15 07:30:12;;;;;;;0.47;0.22;;;;;;;-143.04;100.00;61139.28;5009973;28;20553;-87
2023/01/15 07:32:37;;;;;;;1.30;0.30;;;;;;;-143.04;100.00;61139.28;5008988;28;20068;-86
2023/01/15 07:35:03;;;;;;;0.32;0.32;;;;;;;-143.04;100.00;61139.28;5013801;28;20092;-86
2023/01/15 07:37:28;;;;;;;0.30;0.30;;;;;;;-143.04;100.00;61139.28;5007839;28;20040;-85
2023/01/15 07:39:56;;;;;;;0.30;0.30;;;;;;;-143.04;100.00;61139.28;5004495;28;20116;-86
2023/01/15 07:50:37;;;;;;;0.30;0.30;;;;;;;-143.04;100.00;61139.28;5005986;28;20065;-85
2023/01/15 07:53:03;;;;;;;0.30;0.30;;;;;;;-143.04;100.00;61139.28;5006731;28;20081;-85
2023/01/15 07:55:28;;;;;;;1.20;0.35;;;;;;;-143.04;100.00;61139.28;5005463;28;20050;-85
2023/01/15 07:57:54;;;;;;;0.85;0.40;;;;;;;-143.04;100.00;61139.28;5010586;28;20033;-86
2023/01/15 08:00:23;;;;;;;0.40;0.40;;;;;;;-143.04;100.00;61139.28;5004915;28;20405;-85
2023/01/15 08:02:49;;;;;;;0.55;0.47;;;;;;;-143.04;100.00;61139.28;5006436;28;20040;-86
2023/01/15 08:05:15;;;;;;;0.32;0.32;;;;;;;-143.04;100.00;61139.28;5008007;28;20044;-86
2023/01/15 08:07:42;;;;;;;0.57;0.50;;;;;;;-143.04;100.00;61139.28;5012577;28;20041;-85
2023/01/15 08:10:11;;;;;;;0.45;0.45;;;;;;;-143.04;100.00;61139.28;5007203;28;20128;-84
2023/01/15 08:15:21;;;;;;;1.35;0.43;;;;;;;-143.04;100.00;61139.28;5002708;28;20516;-86
2023/01/15 08:17:50;;;;;;;0.52;0.30;;;;;;;-143.04;100.00;61139.28;5008805;28;20034;-86
2023/01/15 08:20:24;;;;;;;0.50;0.50;;;;;;;-143.04;100.00;61139.28;5012271;28;20034;-86
2023/01/15 08:22:50;;;;;;;0.60;0.60;;;;;;;-143.04;100.00;61139.28;5001652;28;20092;-86
2023/01/15 08:25:21;;;;;;;0.73;0.60;;;;;;;-143.04;100.00;61139.28;5009358;28;20385;-87
2023/01/15 08:27:47;;;;;;;0.65;0.52;;;;;;;-143.04;100.00;61139.28;5001412;28;20038;-86
2023/01/15 08:30:17;;;;;;;0.68;0.52;;;;;;;-143.04;100.00;61139.28;5012298;28;20044;-86
2023/01/15 08:32:42;;;;;;;0.73;0.50;;;;;;;-143.04;100.00;61139.28;5012897;28;20084;-86
2023/01/15 08:35:09;;;;;;;0.55;0.50;;;;;;;-143.04;100.00;61139.28;5006425;28;20038;-86
2023/01/15 08:37:35;;;;;;;0.63;0.63;;;;;;;-143.04;100.00;61139.28;5007390;28;20073;-86
2023/01/15 08:40:00;;;;;;;0.68;0.40;;;;;;;-143.04;100.00;61139.28;5011241;28;20065;-86
2023/01/15 08:42:27;;;;;;;1.15;1.15;;;;;;;-143.04;100.00;61139.28;5010892;28;20113;-86
2023/01/15 08:44:52;;;;;;;0.70;0.70;;;;;;;-143.04;100.00;61139.28;5011181;28;20034;-86
2023/01/15 08:47:17;;;;;;;0.60;0.60;;;;;;;-143.04;100.00;61139.28;5005426;28;20034;-86
2023/01/15 08:49:45;;;;;;;2.95;0.60;;;;;;;-143.04;100.00;61139.28;5010614;28;20489;-86
2023/01/15 08:52:11;;;;;;;0.43;0.40;;;;;;;-143.04;100.00;61139.28;5000150;28;20042;-86
2023/01/15 08:54:36;;;;;;;1.27;0.70;;;;;;;-143.04;100.00;61139.28;5011411;28;20049;-85
2023/01/15 08:57:02;;;;;;;0.60;0.60;;;;;;;-143.04;100.00;61139.28;5007032;28;20030;-86
2023/01/15 08:59:28;;;;;;;2.08;0.68;;;;;;;-143.04;100.00;61139.28;5008736;28;20050;-86
2023/01/15 09:01:53;;;;;;;1.27;0.60;;;;;;;-143.04;100.00;61139.28;5011800;28;20038;-86
2023/01/15 09:04:20;;;;;;;0.50;0.50;;;;;;;-143.04;100.00;61139.28;5011867;28;20113;-85
2023/01/15 09:06:48;;;;;;;0.50;0.50;;;;;;;-143.04;100.00;61139.28;5010397;28;20041;-86
2023/01/15 09:09:15;;;;;;;0.60;0.60;;;;;;;-143.04;100.00;61139.28;5007792;28;20116;-86
2023/01/15 09:11:41;;;;;;;0.60;0.60;;;;;;;-143.04;100.00;61139.28;5009735;28;20052;-86
2023/01/15 09:14:13;;;;;;;0.68;0.52;;;;;;;-143.04;100.00;61139.28;5011102;28;20034;-86
2023/01/15 09:16:38;;;;;;;0.95;0.90;;;;;;;-143.04;100.00;61139.28;5004735;28;20504;-86
2023/01/15 09:19:05;;;;;;;1.15;0.50;;;;;;;-143.04;100.00;61139.28;5006003;28;20030;-86
2023/01/15 09:21:32;;;;;;;0.50;0.50;;;;;;;-143.04;100.00;61139.28;5007918;28;20488;-86
2023/01/15 09:23:58;;;;;;;0.70;0.70;;;;;;;-143.04;100.00;61139.28;5009193;28;20520;-86
2023/01/15 09:26:33;;;;;;;1.17;0.68;;;;;;;-143.04;100.00;61139.28;5010023;28;20034;-85
2023/01/15 09:29:00;;;;;;;0.60;0.60;;;;;;;-143.04;100.00;61139.28;5011066;28;20481;-86
2023/01/15 09:31:27;;;;;;;1.92;0.65;;;;;;;-143.04;100.00;61139.28;5006095;28;20100;-85
2023/01/15 09:33:53;;;;;;;0.60;0.60;;;;;;;-143.04;100.00;61139.28;5002405;28;20053;-86
2023/01/15 09:36:28;;;;;;;0.70;0.70;;;;;;;-143.04;100.00;61139.28;4999422;28;20030;-86
2023/01/15 09:38:56;;;;;;;0.60;0.60;;;;;;;-143.04;100.00;61139.28;5002168;28;20486;-86
2023/01/15 09:44:18;;;;;;;0.60;0.60;;;;;;;-143.04;100.00;61139.28;5003977;28;20084;-86
2023/01/15 09:47:20;;;;;;;0.50;0.50;;;;;;;-143.04;100.00;61139.28;5007280;28;20121;-86
2023/01/15 09:50:12;;;;;;;0.60;0.60;;;;;;;-143.04;100.00;61139.28;5007854;28;20108;-86
2023/01/15 09:53:11;;;;;;;1.23;0.60;;;;;;;-143.04;100.00;61139.28;5010266;28;20046;-86
2023/01/15 09:55:46;;;;;;;0.63;0.60;;;;;;;-143.04;100.00;61139.28;5005368;28;20106;-86
2023/01/15 09:58:17;;;;;;;1.80;0.50;;;;;;;-143.04;100.00;61139.28;5009524;28;20489;-86
2023/01/15 10:00:49;;;;;;;1.27;0.50;;;;;;;-143.04;100.00;61139.28;5005387;28;20073;-86
2023/01/15 10:04:12;;;;;;;0.35;0.35;;;;;;;-143.04;100.00;61139.28;5001975;28;20413;-86
2023/01/15 10:06:47;;;;;;;0.50;0.50;;;;;;;-143.04;100.00;61139.28;5003896;28;20046;-86
2023/01/15 10:09:38;;;;;;;3.13;0.63;;;;;;;-143.04;100.00;61139.28;5006264;28;20030;-86
2023/01/15 10:12:35;;;;;;;0.50;0.50;;;;;;;-143.04;100.00;61139.28;5008074;28;20397;-86
2023/01/15 10:15:12;;;;;;;0.88;0.70;;;;;;;-143.04;100.00;61139.28;5010887;28;20054;-86
2023/01/15 10:17:52;;;;;;;0.60;0.60;;;;;;;-143.04;100.00;61139.28;5003743;28;20038;-86
2023/01/15 10:20:45;;;;;;;1.55;0.93;;;;;;;-143.04;100.00;61139.28;5010544;28;20038;-86
2023/01/15 10:23:39;;;;;;;0.85;0.63;;;;;;;-143.04;100.00;61139.28;5008111;28;20042;-86
2023/01/15 10:26:17;;;;;;;0.40;0.40;;;;;;;-143.04;100.00;61139.28;5000975;28;20030;-86
2023/01/15 10:29:08;;;;;;;0.70;0.70;;;;;;;-143.04;100.00;61139.28;5009122;28;20445;-86
2023/01/15 10:32:00;;;;;;;1.77;0.70;;;;;;;-143.04;100.00;61139.28;5000340;28;20469;-86
2023/01/15 10:35:09;;;;;;;3.10;0.70;;;;;;;-143.04;100.00;61139.28;5008693;28;20046;-86
2023/01/15 10:37:55;;;;;;;0.75;0.60;;;;;;;-143.04;100.00;61139.28;5001640;28;20033;-86
2023/01/15 10:41:04;;;;;;;1.20;0.80;;;;;;;-143.04;100.00;61139.28;5000941;28;20505;-85
2023/01/15 10:43:49;;;;;;;1.35;0.80;;;;;;;-143.04;100.00;61139.28;5005731;28;20037;-85
2023/01/15 10:46:19;;;;;;;1.52;1.05;;;;;;;-143.04;100.00;61139.28;5007787;28;20105;-85
2023/01/15 10:48:56;;;;;;;1.55;1.00;;;;;;;-143.04;100.00;61139.28;5011795;28;20038;-86
2023/01/15 10:51:43;;;;;;;1.45;0.88;;;;;;;-143.04;100.00;61139.28;5003769;28;20036;-85
2023/01/15 10:54:50;;;;;;;0.75;0.75;;;;;;;-143.04;100.00;61139.28;5004211;28;20057;-85
2023/01/15 10:57:42;;;;;;;0.90;0.70;;;;;;;-143.04;100.00;61139.28;5011553;28;20046;-86
2023/01/15 11:00:10;;;;;;;1.02;0.80;;;;;;;-143.04;100.00;61139.28;5011041;28;20034;-85
2023/01/15 11:03:05;;;;;;;0.95;0.70;;;;;;;-143.04;100.00;61139.28;5014060;28;20618;-85
2023/01/15 11:05:33;;;;;;;0.47;0.47;;;;;;;-143.04;100.00;61139.28;5003850;28;20034;-86
2023/01/15 11:08:01;;;;;;;0.88;0.68;;;;;;;-143.04;100.00;61139.28;5008349;28;20068;-85
2023/01/15 11:10:27;;;;;;;0.73;0.60;;;;;;;-143.04;100.00;61139.28;5013481;28;20038;-86
2023/01/15 11:21:26;;;;;;;0.57;0.50;;;;;;;-143.04;100.00;61139.28;5013024;28;20030;-86
2023/01/15 11:23:54;;;;;;;1.52;0.80;;;;;;;-143.04;100.00;61139.28;5011386;28;20494;-85
2023/01/15 11:26:26;;;;;;;1.55;0.60;;;;;;;-143.04;100.00;61139.28;5002298;28;20030;-85
2023/01/15 11:28:54;;;;;;;0.73;0.73;;;;;;;-143.04;100.00;61139.28;5013071;28;20037;-86
2023/01/15 11:31:20;;;;;;;1.15;0.80;;;;;;;-143.04;100.00;61139.28;5011580;28;20113;-85
2023/01/15 11:34:01;;;;;;;1.52;0.80;;;;;;;-143.04;100.00;61139.28;5004895;28;20113;-85
2023/01/15 11:36:28;;;;;;;;;;;;;;;-143.04;100.00;61139.28;5008761;28;20062;-85
2023/01/15 11:38:55;;;;;;;0.80;0.80;;;;;;;-143.04;100.00;61139.28;5009269;28;20468;-85
2023/01/15 11:52:49;;;;;;;2.60;1.50;;;;;;;-143.04;100.00;61139.28;4995950;28;20057;-85
2023/01/15 11:55:22;;;;;;;2.78;1.30;;;;;;;-143.04;100.00;61139.28;5007783;28;20060;-85
2023/01/15 11:57:50;;;;;;;6.88;1.90;;;;;;;-143.04;100.00;61139.28;5013364;28;20046;-91
2023/01/15 12:00:24;;;;;;;1.38;1.25;;;;;;;-143.04;100.00;61139.28;5011694;28;20025;-93
2023/01/15 12:02:58;;;;;;;1.60;1.50;;;;;;;-143.04;100.00;61139.28;5007474;28;20045;-83
2023/01/15 12:05:28;;;;;;;1.80;1.70;;;;;;;-143.04;100.00;61139.28;5004571;28;20035;-84
2023/01/15 12:08:00;;;;;;;1.98;1.60;;;;;;;-143.04;100.00;61139.28;5000378;28;20573;-84
2023/01/15 12:16:54;;;;;;;2.00;1.20;;;;;;;4.89;100.00;97132.44;5012867;28;135881;-84
2023/01/15 12:19:42;;;;;;;1.75;0.90;;;;;;;4.91;100.00;97143.44;5045108;28;20045;-84
2023/01/15 12:22:38;;;;;;;0.90;0.80;;;;;;;4.92;100.00;97158.06;5039140;28;20048;-86
2023/01/15 12:25:29;;;;;;;1.10;1.00;;;;;;;4.87;100.00;97177.78;5043955;28;20025;-87
2023/01/15 12:28:26;;;;;;;1.10;1.00;;;;;;;4.82;100.00;97168.75;5043578;28;20052;-87
2023/01/15 12:31:12;;;;;;;1.33;1.15;;;;;;;4.82;100.00;97152.34;5045521;28;20540;-88
2023/01/15 12:34:33;;;;;;;1.70;1.17;;;;;;;4.80;100.00;97155.16;5044145;28;20396;-87
2023/01/15 12:37:14;;;;;;;1.55;0.63;;;;;;;4.71;100.00;97184.00;5038147;28;20045;-85
2023/01/15 12:40:13;;;;;;;0.90;0.90;;;;;;;4.60;100.00;97181.91;5041305;28;20179;-86
2023/01/15 12:45:37;;;;;;;1.10;1.00;;;;;;;4.35;100.00;97181.44;5046994;28;20083;-89
2023/01/15 12:48:28;;;;;;;0.50;0.50;;;;;;;4.21;100.00;97177.88;5041789;28;20092;-90